RJTQ(METAR)
08/23 17:00
RJTQ 230800Z 26014KT 9999 RA SCT025 BKN035 27/24 Q1006 RMK A2973=
戻る
トップページへ戻る
IMOC Co,.Ltd.